メインページ
METAR-TAF:

METAR-TAF

空港 :

メヘラーバード国際空港

テヘラン, イラン

緯度: 35-41N, 経度: 051-21E, 海抜: 1204m

現時点の気象観測

当レポートは34分前の23:30(UTC)に作成
西/北西の風 8kt
気温 27°C
湿度 42%
気圧 1004 hPa
視程10km以上
高度10000ftの千切れ雲あり

METAR: OIII 162330Z 29008KT 9999 BKN100 27/13 Q1004 A2966

時間: 04:34 (00:04 UTC)

予報

当レポートは1時間4分前の23:00(UTC)に作成
予報は17日の 00時(UTC)から 18日の 06時(UTC)まで有効
西/北西の風 8kt
視程: 8000m
17日の 00時(UTC)から 17日の 03時(UTC)まで一時的に
北/北西の風 19kt
17日の 12時(UTC)から 17日の 18時(UTC)まで一時的に
東/南東の風 14kt、最大23ktの突風を伴う
視程: 4000m

TAF: OIII 162300Z 1700/1806 29004MPS 8000 NSC TEMPO 1700/1703 340010MPS TEMPO 1712/1718 12007G12MPS 4000 SA

4,000以上の空港の気象観測と天気予報(METAR報とTAF報)

利用可能な観測所は地図上に黄色い丸と赤い丸で示す。

丸の上にカーソルを重ねると観測所名を参照できる。

次にクリックすると気象観測と天気予報を参照できる。

マップの切り替え:黒色「×」印の緑ボタンをクリックして拡大、「-」印の緑ボタンをクリックして縮小、緑色の三角印をクリックして隣りの地図に切り替え


METAR-TAF: